createdAt,value
2018-11-25T00:02:26.907Z,164.90
2018-11-25T00:05:00.879Z,94.37
2018-11-25T00:07:35.879Z,121.23
2018-11-25T00:11:13.407Z,132.33
2018-11-25T00:13:47.394Z,118.03
2018-11-25T00:16:21.386Z,161.23
2018-11-25T00:18:55.421Z,182.87
2018-11-25T00:21:29.374Z,204.50
2018-11-25T00:24:03.362Z,140.50
2018-11-25T00:26:37.187Z,114.00
2018-11-25T00:29:11.118Z,208.63
2018-11-25T00:31:44.965Z,182.77
2018-11-25T00:34:18.888Z,238.67
2018-11-25T00:36:52.757Z,138.53
2018-11-25T00:39:26.959Z,229.13
2018-11-25T00:42:00.822Z,184.33
2018-11-25T00:44:35.056Z,306.13
2018-11-25T00:47:08.902Z,304.33
2018-11-25T00:49:42.785Z,219.60
2018-11-25T00:52:16.649Z,173.47
2018-11-25T00:54:50.629Z,167.33
2018-11-25T00:57:24.457Z,303.00
2018-11-25T00:59:58.441Z,154.03
2018-11-25T01:02:32.315Z,160.40
2018-11-25T01:05:06.319Z,165.83
2018-11-25T01:07:40.341Z,162.23
2018-11-25T01:10:15.792Z,195.33
2018-11-25T01:12:49.900Z,172.77
2018-11-25T01:15:23.784Z,239.27
2018-11-25T01:17:57.698Z,168.00
2018-11-25T01:20:31.980Z,182.80
2018-11-25T01:23:06.526Z,248.60
2018-11-25T01:25:40.571Z,176.63
2018-11-25T01:28:14.468Z,205.80
2018-11-25T01:30:48.984Z,169.10
2018-11-25T01:33:24.129Z,168.90
2018-11-25T01:35:58.072Z,184.83
2018-11-25T01:38:32.044Z,195.50
2018-11-25T01:41:06.906Z,121.07
2018-11-25T01:43:40.832Z,177.73
2018-11-25T01:46:14.676Z,203.43
2018-11-25T01:48:48.818Z,191.60
2018-11-25T01:51:23.325Z,204.23
2018-11-25T01:53:57.464Z,144.17
2018-11-25T01:56:31.576Z,112.23
2018-11-25T01:59:05.446Z,186.87
2018-11-25T02:01:39.414Z,282.30
2018-11-25T02:04:14.791Z,193.83
2018-11-25T02:06:48.749Z,215.30
2018-11-25T02:09:22.547Z,129.57
2018-11-25T02:11:57.273Z,186.20
2018-11-25T02:14:31.506Z,168.67
2018-11-25T02:17:05.393Z,180.67
2018-11-25T02:19:39.253Z,142.43
2018-11-25T02:22:13.099Z,139.70
2018-11-25T02:24:46.975Z,166.80
2018-11-25T02:27:20.859Z,246.87
2018-11-25T02:29:54.735Z,200.47
2018-11-25T02:32:28.637Z,120.37
2018-11-25T02:35:02.510Z,110.93
2018-11-25T02:37:36.563Z,145.83
2018-11-25T02:40:11.730Z,187.00
2018-11-25T02:42:45.805Z,105.53
2018-11-25T02:45:20.264Z,181.40
2018-11-25T02:47:54.166Z,201.93
2018-11-25T02:50:31.435Z,232.63
2018-11-25T02:53:06.999Z,292.67
2018-11-25T02:55:40.834Z,126.67
2018-11-25T02:58:14.788Z,175.87
2018-11-25T03:00:48.676Z,142.53
2018-11-25T03:03:22.560Z,212.20
2018-11-25T03:05:56.413Z,192.80
2018-11-25T03:08:30.294Z,214.70
2018-11-25T03:11:04.167Z,176.47
2018-11-25T03:13:38.093Z,114.53
2018-11-25T03:16:11.936Z,197.43
2018-11-25T03:18:45.897Z,114.40
2018-11-25T03:21:19.742Z,197.67
2018-11-25T03:23:53.596Z,188.27
2018-11-25T03:26:27.431Z,162.20
2018-11-25T03:29:01.602Z,154.10
2018-11-25T03:31:35.431Z,165.60
2018-11-25T03:34:09.300Z,135.43
2018-11-25T03:36:43.135Z,120.67
2018-11-25T03:39:16.984Z,187.27
2018-11-25T03:41:50.816Z,142.80
2018-11-25T03:44:24.701Z,248.80
2018-11-25T03:46:58.680Z,187.67
2018-11-25T03:49:32.602Z,126.60
2018-11-25T03:52:06.741Z,342.13
2018-11-25T03:54:40.802Z,118.20
2018-11-25T03:57:14.692Z,165.97
2018-11-25T03:59:48.680Z,208.43
2018-11-25T04:02:22.502Z,208.87
2018-11-25T04:04:56.363Z,150.47
2018-11-25T04:07:30.173Z,193.33
2018-11-25T04:10:04.334Z,124.83
2018-11-25T04:12:38.203Z,260.30
2018-11-25T04:15:17.045Z,201.57
2018-11-25T04:17:51.006Z,133.67
2018-11-25T04:20:24.893Z,151.87
2018-11-25T04:22:58.740Z,172.53
2018-11-25T04:25:32.740Z,193.03
2018-11-25T04:28:06.610Z,127.93
2018-11-25T04:30:40.525Z,126.40
2018-11-25T04:33:14.477Z,103.93
2018-11-25T04:35:48.451Z,166.73
2018-11-25T04:38:22.306Z,185.80
2018-11-25T04:40:56.190Z,113.60
2018-11-25T04:43:30.039Z,237.07
2018-11-25T04:46:03.993Z,113.67
2018-11-25T04:48:37.825Z,190.33
2018-11-25T04:51:11.784Z,169.67
2018-11-25T04:53:45.686Z,214.53
2018-11-25T04:56:19.529Z,166.40
2018-11-25T04:58:53.371Z,122.60
2018-11-25T05:01:27.317Z,159.23
2018-11-25T05:04:01.182Z,134.47
2018-11-25T05:06:35.063Z,115.77
2018-11-25T05:09:09.512Z,156.47
2018-11-25T05:11:43.478Z,176.67
2018-11-25T05:14:17.300Z,133.00
2018-11-25T05:16:51.207Z,130.17
2018-11-25T05:19:25.037Z,169.33
2018-11-25T05:21:58.923Z,172.73
2018-11-25T05:24:32.859Z,141.43
2018-11-25T05:27:07.068Z,188.27
2018-11-25T05:29:40.926Z,137.27
2018-11-25T05:32:14.787Z,134.77
2018-11-25T05:34:48.733Z,169.53
2018-11-25T05:37:22.601Z,166.60
2018-11-25T05:39:56.424Z,107.20
2018-11-25T05:42:30.271Z,178.93
2018-11-25T05:45:04.227Z,132.87
2018-11-25T05:47:38.295Z,140.47
2018-11-25T05:50:14.361Z,147.67
2018-11-25T05:52:48.350Z,117.93
2018-11-25T05:55:22.199Z,185.30
2018-11-25T05:57:56.130Z,143.30
2018-11-25T06:00:33.913Z,144.40
2018-11-25T06:03:07.792Z,132.43
2018-11-25T06:05:41.704Z,161.93
2018-11-25T06:08:15.550Z,152.20
2018-11-25T06:10:49.392Z,148.33
2018-11-25T06:13:23.257Z,123.73
2018-11-25T06:15:57.070Z,180.80
2018-11-25T06:18:31.111Z,145.27
2018-11-25T06:21:04.961Z,150.80
2018-11-25T06:23:39.040Z,141.53
2018-11-25T06:26:12.863Z,179.77
2018-11-25T06:28:46.769Z,171.60
2018-11-25T06:31:20.745Z,212.37
2018-11-25T06:33:54.995Z,138.97
2018-11-25T06:36:28.896Z,191.83
2018-11-25T06:39:02.987Z,164.10
2018-11-25T06:41:36.842Z,189.83
2018-11-25T06:44:10.723Z,281.07
2018-11-25T06:46:44.589Z,212.50
2018-11-25T06:49:18.538Z,119.33
2018-11-25T06:51:52.432Z,175.17
2018-11-25T06:54:26.533Z,188.03
2018-11-25T06:57:00.371Z,167.13
2018-11-25T06:59:34.275Z,206.57
2018-11-25T07:02:08.185Z,218.33
2018-11-25T07:04:42.096Z,153.33
2018-11-25T07:07:15.962Z,120.53
2018-11-25T07:09:50.329Z,188.53
2018-11-25T07:12:24.178Z,118.23
2018-11-25T07:14:58.088Z,129.57
2018-11-25T07:17:32.098Z,159.47
2018-11-25T07:20:06.681Z,136.30
2018-11-25T07:22:40.552Z,149.37
2018-11-25T07:25:20.582Z,190.63
2018-11-25T07:27:54.469Z,135.53
2018-11-25T07:30:29.078Z,117.47
2018-11-25T07:33:02.965Z,305.07
2018-11-25T07:35:36.924Z,188.33
2018-11-25T07:38:10.837Z,156.93
2018-11-25T07:40:44.820Z,187.13
2018-11-25T07:43:18.650Z,136.70
2018-11-25T07:45:52.516Z,145.63
2018-11-25T07:48:26.370Z,111.73
2018-11-25T07:51:00.297Z,99.67
2018-11-25T07:53:34.151Z,135.97
2018-11-25T07:56:08.060Z,157.47
2018-11-25T07:58:41.990Z,86.30
2018-11-25T08:01:15.923Z,128.97
2018-11-25T08:03:49.756Z,148.97
2018-11-25T08:06:23.898Z,160.63
2018-11-25T08:08:57.724Z,101.17
2018-11-25T08:11:31.620Z,126.97
2018-11-25T08:14:05.605Z,153.53
2018-11-25T08:16:39.587Z,116.10
2018-11-25T08:19:14.298Z,105.87
2018-11-25T08:21:48.260Z,103.27
2018-11-25T08:24:22.167Z,146.70
2018-11-25T08:26:56.021Z,173.63
2018-11-25T08:29:29.860Z,112.67
2018-11-25T08:32:03.766Z,184.80
2018-11-25T08:34:37.626Z,126.80
2018-11-25T08:37:11.525Z,130.43
2018-11-25T08:39:45.613Z,124.30
2018-11-25T08:42:20.656Z,222.60
2018-11-25T08:44:54.581Z,181.93
2018-11-25T08:47:28.586Z,120.77
2018-11-25T08:50:02.442Z,180.17
2018-11-25T08:52:36.352Z,128.40
2018-11-25T08:55:12.442Z,157.63
2018-11-25T08:57:46.464Z,106.27
2018-11-25T09:00:22.099Z,167.77
2018-11-25T09:02:57.013Z,135.57
2018-11-25T09:05:30.986Z,140.87
2018-11-25T09:08:04.919Z,137.57
2018-11-25T09:10:38.738Z,132.13
2018-11-25T09:13:12.603Z,232.23
2018-11-25T09:15:46.428Z,161.53
2018-11-25T09:18:20.443Z,151.27
2018-11-25T09:20:54.302Z,123.70
2018-11-25T09:23:28.167Z,149.27
2018-11-25T09:26:02.015Z,175.10
2018-11-25T09:28:36.031Z,165.40
2018-11-25T09:31:09.843Z,134.13
2018-11-25T09:33:43.696Z,156.07
2018-11-25T09:36:17.539Z,187.17
2018-11-25T09:38:51.451Z,192.20
2018-11-25T09:41:25.350Z,125.57
2018-11-25T09:43:59.182Z,150.20
2018-11-25T09:46:33.024Z,203.30
2018-11-25T09:49:07.176Z,174.33
2018-11-25T09:51:41.094Z,125.70
2018-11-25T09:54:15.023Z,165.57
2018-11-25T09:56:48.869Z,166.50
2018-11-25T09:59:22.747Z,228.37
2018-11-25T10:01:56.579Z,214.80
2018-11-25T10:04:30.460Z,171.97
2018-11-25T10:07:04.269Z,281.33
2018-11-25T10:09:38.231Z,233.33
2018-11-25T10:12:12.075Z,206.43
2018-11-25T10:14:46.074Z,165.23
2018-11-25T10:17:20.035Z,132.80
2018-11-25T10:19:53.987Z,181.20
2018-11-25T10:22:27.853Z,215.77
2018-11-25T10:25:01.772Z,168.97
2018-11-25T10:27:35.601Z,224.53
2018-11-25T10:30:18.033Z,155.53
2018-11-25T10:32:54.910Z,185.80
2018-11-25T10:35:28.953Z,170.23
2018-11-25T10:38:02.810Z,175.37
2018-11-25T10:40:36.678Z,194.77
2018-11-25T10:43:10.615Z,188.00
2018-11-25T10:45:44.511Z,234.43
2018-11-25T10:48:18.323Z,163.03
2018-11-25T10:50:52.212Z,176.83
2018-11-25T10:53:26.354Z,187.67
2018-11-25T10:56:01.062Z,177.97
2018-11-25T10:58:35.070Z,156.50
2018-11-25T11:01:13.959Z,264.47
2018-11-25T11:03:53.023Z,281.83
2018-11-25T11:06:32.621Z,286.37
2018-11-25T11:09:08.393Z,241.53
2018-11-25T11:11:42.614Z,222.70
2018-11-25T11:14:16.580Z,282.50
2018-11-25T11:16:53.891Z,306.87
2018-11-25T11:19:24.595Z,281.37
2018-11-25T11:21:58.561Z,312.20
2018-11-25T11:24:32.528Z,193.70
2018-11-25T11:27:06.551Z,229.80
2018-11-25T11:29:40.459Z,440.33
2018-11-25T11:32:15.376Z,313.37
2018-11-25T11:34:49.320Z,339.40
2018-11-25T11:37:23.332Z,256.30
2018-11-25T11:39:57.247Z,227.80
2018-11-25T11:42:31.134Z,257.67
2018-11-25T11:45:06.494Z,206.10
2018-11-25T11:47:42.580Z,284.30
2018-11-25T11:50:17.919Z,249.47
2018-11-25T11:52:51.832Z,176.07
2018-11-25T11:55:25.722Z,169.07
2018-11-25T11:57:59.635Z,207.70
2018-11-25T12:00:33.600Z,346.93
2018-11-25T12:03:07.621Z,257.53
2018-11-25T12:05:41.520Z,202.70
2018-11-25T12:08:15.476Z,217.13
2018-11-25T12:10:49.325Z,257.83
2018-11-25T12:13:23.726Z,201.10
2018-11-25T12:15:58.735Z,212.60
2018-11-25T12:18:32.605Z,167.23
2018-11-25T12:21:06.853Z,152.80
2018-11-25T12:23:40.711Z,145.60
2018-11-25T12:26:14.685Z,159.33
2018-11-25T12:28:48.547Z,160.77
2018-11-25T12:31:22.556Z,142.97
2018-11-25T12:33:56.407Z,136.47
2018-11-25T12:36:30.277Z,185.43
2018-11-25T12:39:04.807Z,153.50
2018-11-25T12:41:40.734Z,189.97
2018-11-25T12:44:17.008Z,156.07
2018-11-25T12:46:50.878Z,142.20
2018-11-25T12:49:24.831Z,208.43
2018-11-25T12:51:58.786Z,162.07
2018-11-25T12:54:32.861Z,167.87
2018-11-25T12:57:07.057Z,139.23
2018-11-25T12:59:41.022Z,184.53
2018-11-25T13:02:14.893Z,148.07
2018-11-25T13:04:48.846Z,153.30
2018-11-25T13:07:22.989Z,193.17
2018-11-25T13:09:56.886Z,173.03
2018-11-25T13:12:30.717Z,158.63
2018-11-25T13:15:04.646Z,158.33
2018-11-25T13:17:38.577Z,197.40
2018-11-25T13:20:13.685Z,179.20
2018-11-25T13:22:47.678Z,229.53
2018-11-25T13:25:21.682Z,176.60
2018-11-25T13:27:55.558Z,171.67
2018-11-25T13:30:31.081Z,192.63
2018-11-25T13:33:05.395Z,138.50
2018-11-25T13:35:40.552Z,198.23
2018-11-25T13:38:15.741Z,166.47
2018-11-25T13:40:49.801Z,182.50
2018-11-25T13:43:23.766Z,165.33
2018-11-25T13:45:57.798Z,156.00
2018-11-25T13:48:31.631Z,197.93
2018-11-25T13:51:07.046Z,194.27
2018-11-25T13:53:40.940Z,145.60
2018-11-25T13:56:14.924Z,178.17
2018-11-25T13:58:48.761Z,158.97
2018-11-25T14:01:22.650Z,155.60
2018-11-25T14:03:56.615Z,174.17
2018-11-25T14:06:30.592Z,198.60
2018-11-25T14:09:06.643Z,236.23
2018-11-25T14:11:40.599Z,194.20
2018-11-25T14:14:14.450Z,184.10
2018-11-25T14:16:48.443Z,197.03
2018-11-25T14:19:22.288Z,244.40
2018-11-25T14:21:56.224Z,204.27
2018-11-25T14:24:30.079Z,187.27
2018-11-25T14:27:04.553Z,188.83
2018-11-25T14:29:38.404Z,178.93
2018-11-25T14:32:12.454Z,233.93
2018-11-25T14:34:46.291Z,234.87
2018-11-25T14:37:20.330Z,211.50
2018-11-25T14:39:54.340Z,222.57
2018-11-25T14:42:28.227Z,264.23
2018-11-25T14:45:02.514Z,190.07
2018-11-25T14:47:36.723Z,249.73
2018-11-25T14:50:12.920Z,202.00
2018-11-25T14:52:48.308Z,248.90
2018-11-25T14:55:22.287Z,309.30
2018-11-25T14:57:56.640Z,282.27
2018-11-25T15:00:31.250Z,260.80
2018-11-25T15:03:06.712Z,196.23
2018-11-25T15:05:42.854Z,226.80
2018-11-25T15:08:18.660Z,229.20
2018-11-25T15:10:52.728Z,205.77
2018-11-25T15:13:26.695Z,194.67
2018-11-25T15:16:01.772Z,279.40
2018-11-25T15:18:35.798Z,307.50
2018-11-25T15:21:10.716Z,247.83
2018-11-25T15:23:44.677Z,184.77
2018-11-25T15:26:19.278Z,232.27
2018-11-25T15:28:53.327Z,179.90
2018-11-25T15:31:27.400Z,311.50
2018-11-25T15:34:01.370Z,244.57
2018-11-25T15:36:35.286Z,193.03
2018-11-25T15:39:11.529Z,168.83
2018-11-25T15:41:45.411Z,187.10
2018-11-25T15:44:19.354Z,179.73
2018-11-25T15:46:53.184Z,206.87
2018-11-25T15:49:27.129Z,210.23
2018-11-25T15:52:01.007Z,154.40
2018-11-25T15:54:34.919Z,273.67
2018-11-25T15:57:08.847Z,181.77
2018-11-25T15:59:42.997Z,202.60
2018-11-25T16:02:16.974Z,175.80
2018-11-25T16:04:50.995Z,140.07
2018-11-25T16:07:24.916Z,163.40
2018-11-25T16:09:59.065Z,152.40
2018-11-25T16:12:32.956Z,146.67
2018-11-25T16:15:10.478Z,117.70
2018-11-25T16:17:44.440Z,111.63
2018-11-25T16:20:23.493Z,130.57
2018-11-25T16:23:00.900Z,140.20
2018-11-25T16:25:43.954Z,139.70
2018-11-25T16:28:22.099Z,164.70
2018-11-25T16:31:13.187Z,165.17
2018-11-25T16:33:47.199Z,148.27
2018-11-25T16:36:21.219Z,98.57
2018-11-25T16:38:55.180Z,163.90
2018-11-25T16:41:32.643Z,133.20
2018-11-25T16:44:07.348Z,146.43
2018-11-25T16:46:41.893Z,121.67
2018-11-25T16:49:15.853Z,123.23
2018-11-25T16:51:49.714Z,138.30
2018-11-25T16:54:23.807Z,112.93
2018-11-25T16:56:57.722Z,134.73
2018-11-25T16:59:31.812Z,87.00
2018-11-25T17:02:05.976Z,87.87
2018-11-25T17:04:39.849Z,120.47
2018-11-25T17:07:13.810Z,120.07
2018-11-25T17:09:47.682Z,111.20
2018-11-25T17:12:21.570Z,112.23
2018-11-25T17:14:55.415Z,94.33
2018-11-25T17:17:29.243Z,121.37
2018-11-25T17:20:03.141Z,109.77
2018-11-25T17:22:37.099Z,100.37
2018-11-25T17:25:12.317Z,105.77
2018-11-25T17:27:46.224Z,89.33
2018-11-25T17:30:20.982Z,100.03
2018-11-25T17:32:55.059Z,88.57
2018-11-25T17:35:30.363Z,117.27
2018-11-25T17:38:04.318Z,84.87
2018-11-25T17:40:38.696Z,108.17
2018-11-25T17:43:14.962Z,102.70
2018-11-25T17:45:48.914Z,113.30
2018-11-25T17:48:22.879Z,131.70
2018-11-25T17:50:57.617Z,111.73
2018-11-25T17:53:31.647Z,104.60
2018-11-25T17:56:06.236Z,114.27
2018-11-25T17:58:40.347Z,112.00
2018-11-25T18:01:14.288Z,117.30
2018-11-25T18:03:48.550Z,106.93
2018-11-25T18:06:22.738Z,102.03
2018-11-25T18:08:57.187Z,93.23
2018-11-25T18:11:32.488Z,103.63
2018-11-25T18:14:07.890Z,110.70
2018-11-25T18:16:41.847Z,113.90
2018-11-25T18:19:19.433Z,95.23
2018-11-25T18:22:03.762Z,93.67
2018-11-25T18:24:37.632Z,114.63
2018-11-25T18:27:11.881Z,110.83
2018-11-25T18:29:45.800Z,110.93
2018-11-25T18:32:19.731Z,107.73
2018-11-25T18:34:54.761Z,106.57
2018-11-25T18:37:28.647Z,95.47
2018-11-25T18:40:02.584Z,96.40
2018-11-25T18:42:36.608Z,96.53
2018-11-25T18:45:13.218Z,94.10
2018-11-25T18:47:48.206Z,90.37
2018-11-25T18:50:22.925Z,100.00
2018-11-25T18:52:56.771Z,90.10
2018-11-25T18:55:29.285Z,95.93
2018-11-25T18:58:03.271Z,89.70
2018-11-25T19:01:41.020Z,106.47
2018-11-25T19:04:14.879Z,78.40
2018-11-25T19:06:49.561Z,82.20
2018-11-25T19:09:23.663Z,85.03
2018-11-25T19:11:57.584Z,89.67
2018-11-25T19:14:31.444Z,88.43
2018-11-25T19:17:05.783Z,95.83
2018-11-25T19:19:39.776Z,88.10
2018-11-25T19:22:14.689Z,78.70
2018-11-25T19:24:48.913Z,87.10
2018-11-25T19:27:23.084Z,89.37
2018-11-25T19:29:57.164Z,103.17
2018-11-25T19:32:30.991Z,73.30
2018-11-25T19:35:05.216Z,74.63
2018-11-25T19:37:39.066Z,77.10
2018-11-25T19:40:15.274Z,76.30
2018-11-25T19:42:49.280Z,75.73
2018-11-25T19:45:27.249Z,73.87
2018-11-25T19:48:01.245Z,72.67
2018-11-25T19:50:36.384Z,67.17
2018-11-25T19:53:11.446Z,76.73
2018-11-25T19:55:46.771Z,63.53
2018-11-25T19:58:20.805Z,69.90
2018-11-25T20:00:56.032Z,82.07
2018-11-25T20:03:30.894Z,64.67
2018-11-25T20:06:05.072Z,83.47
2018-11-25T20:08:39.299Z,64.33
2018-11-25T20:11:13.296Z,66.70
2018-11-25T20:13:47.353Z,66.73
2018-11-25T20:16:26.327Z,63.00
2018-11-25T20:19:00.189Z,67.73
2018-11-25T20:21:38.989Z,66.93
2018-11-25T20:24:12.880Z,62.13
2018-11-25T20:26:51.986Z,66.03
2018-11-25T20:29:26.648Z,59.60
2018-11-25T20:32:06.274Z,53.67
2018-11-25T20:34:40.231Z,80.63
2018-11-25T20:37:15.775Z,56.60
2018-11-25T20:39:49.862Z,58.33
2018-11-25T20:42:24.339Z,57.47
2018-11-25T20:44:59.228Z,68.90
2018-11-25T20:47:33.204Z,70.87
2018-11-25T20:50:08.270Z,72.97
2018-11-25T20:52:47.367Z,63.83
2018-11-25T20:55:21.326Z,57.87
2018-11-25T20:57:55.324Z,61.33
2018-11-25T21:00:30.428Z,53.30
2018-11-25T21:03:04.474Z,63.77
2018-11-25T21:05:38.447Z,63.23
2018-11-25T21:08:12.278Z,62.13
2018-11-25T21:10:46.195Z,61.33
2018-11-25T21:13:20.039Z,67.23
2018-11-25T21:15:53.905Z,64.27
2018-11-25T21:18:27.758Z,60.63
2018-11-25T21:21:01.628Z,87.97
2018-11-25T21:23:35.469Z,64.17
2018-11-25T21:26:09.567Z,76.13
2018-11-25T21:28:43.404Z,65.10
2018-11-25T21:31:17.362Z,69.77
2018-11-25T21:33:51.202Z,56.40
2018-11-25T21:36:25.149Z,58.40
2018-11-25T21:38:58.997Z,57.40
2018-11-25T21:41:32.849Z,59.67
2018-11-25T21:44:07.443Z,53.87
2018-11-25T21:46:41.383Z,57.03
2018-11-25T21:49:15.244Z,56.27
2018-11-25T21:51:49.136Z,56.53
2018-11-25T21:54:23.070Z,52.97
2018-11-25T21:56:57.574Z,53.70
2018-11-25T21:59:30.884Z,49.67
2018-11-25T22:02:04.778Z,52.47
2018-11-25T22:04:38.619Z,56.97
2018-11-25T22:07:12.640Z,49.97
2018-11-25T22:09:46.470Z,53.53
2018-11-25T22:12:20.324Z,58.30
2018-11-25T22:14:54.246Z,51.40
2018-11-25T22:17:28.272Z,53.70
2018-11-25T22:20:02.111Z,54.43
2018-11-25T22:22:36.127Z,51.80
2018-11-25T22:25:14.025Z,46.33
2018-11-25T22:27:48.015Z,54.10
2018-11-25T22:30:23.256Z,54.30
2018-11-25T22:32:57.192Z,52.77
2018-11-25T22:35:37.627Z,51.23
2018-11-25T22:38:11.575Z,46.77
2018-11-25T22:40:45.408Z,50.83
2018-11-25T22:43:19.326Z,47.43
2018-11-25T22:45:53.195Z,50.07
2018-11-25T22:48:27.173Z,57.90
2018-11-25T22:51:01.061Z,47.83
2018-11-25T22:53:35.136Z,47.53
2018-11-25T22:56:08.981Z,55.20
2018-11-25T22:58:42.930Z,47.73
2018-11-25T23:01:16.795Z,48.87
2018-11-25T23:04:02.421Z,51.27
2018-11-25T23:06:47.331Z,52.33
2018-11-25T23:09:21.307Z,51.27
2018-11-25T23:11:55.145Z,48.93
2018-11-25T23:14:29.041Z,51.53
2018-11-25T23:17:03.032Z,50.90
2018-11-25T23:19:37.933Z,49.77
2018-11-25T23:22:11.794Z,51.17
2018-11-25T23:24:45.932Z,51.17
2018-11-25T23:27:19.752Z,46.83
2018-11-25T23:29:53.807Z,46.90
2018-11-25T23:32:27.638Z,52.33
2018-11-25T23:35:01.508Z,49.13
2018-11-25T23:37:35.338Z,47.37
2018-11-25T23:40:10.426Z,56.77
2018-11-25T23:42:44.386Z,49.13
2018-11-25T23:45:18.393Z,50.70
2018-11-25T23:47:52.205Z,45.60
2018-11-25T23:50:26.146Z,52.10
2018-11-25T23:53:00.133Z,48.83
2018-11-25T23:55:34.055Z,51.90
2018-11-25T23:58:07.916Z,50.30
